Time;durP1;ratioP1;P1;durP2;ratioP2;P2;SDS_P1;SDS_P2;PMS_P1;PMS_P2;Temp;Humidity;BMP_temperature;BMP_pressure;BME280_temperature;BME280_humidity;BME280_pressure;Samples;Min_cycle;Max_cycle;Signal;HPM_P1;HPM_P2
2022/09/22 00:01:04;;;;;;;5.40;4.33;;;;;;;4.85;100.00;96994.16;5011193;28;101997;-63
2022/09/22 00:03:32;;;;;;;4.33;3.50;;;;;;;4.73;100.00;96988.66;5010981;28;102492;-62
2022/09/22 00:06:01;;;;;;;3.90;3.60;;;;;;;4.69;100.00;96979.53;5012366;28;104262;-62
2022/09/22 00:08:31;;;;;;;4.43;3.70;;;;;;;4.77;100.00;96975.88;5009570;28;104997;-62
2022/09/22 00:11:04;;;;;;;5.40;4.30;;;;;;;4.74;100.00;96981.56;5009221;28;104239;-62
2022/09/22 00:13:32;;;;;;;4.20;3.80;;;;;;;4.65;100.00;96975.66;5010864;28;101752;-62
2022/09/22 00:16:01;;;;;;;3.70;3.40;;;;;;;4.58;100.00;96976.66;5009426;28;105462;-62
2022/09/22 00:18:30;;;;;;;3.17;2.87;;;;;;;4.64;100.00;96981.94;5008855;28;105184;-62
2022/09/22 00:20:58;;;;;;;3.23;3.00;;;;;;;4.69;100.00;96984.78;5009381;28;101843;-62
2022/09/22 00:23:27;;;;;;;2.90;2.63;;;;;;;4.72;100.00;96979.13;5009077;28;103732;-62
2022/09/22 00:25:55;;;;;;;4.57;3.10;;;;;;;4.61;100.00;96971.00;5010039;28;102530;-62
2022/09/22 00:28:24;;;;;;;4.60;3.20;;;;;;;4.67;100.00;96975.47;5012907;28;101810;-62
2022/09/22 00:30:51;;;;;;;5.30;4.13;;;;;;;4.64;100.00;96974.03;5008593;28;105105;-63
2022/09/22 00:33:20;;;;;;;4.53;3.27;;;;;;;4.55;100.00;96972.63;5009213;28;102101;-62
2022/09/22 00:35:57;;;;;;;3.10;2.87;;;;;;;4.55;100.00;96964.72;5009208;28;104005;-62
2022/09/22 00:38:24;;;;;;;5.13;3.40;;;;;;;4.39;100.00;96958.97;5008677;28;103762;-62
2022/09/22 00:40:51;;;;;;;5.27;4.10;;;;;;;4.28;100.00;96970.06;5009077;28;101949;-62
2022/09/22 00:43:19;;;;;;;3.10;2.80;;;;;;;4.22;100.00;96968.22;5009148;28;105658;-62
2022/09/22 00:45:49;;;;;;;2.90;2.70;;;;;;;4.18;100.00;96974.88;5008591;28;105422;-62
2022/09/22 00:48:18;;;;;;;3.40;2.77;;;;;;;4.24;100.00;96968.84;5008928;28;101837;-62
2022/09/22 00:50:49;;;;;;;2.90;2.70;;;;;;;4.16;100.00;96967.19;5011984;28;104987;-62
2022/09/22 00:53:18;;;;;;;4.13;3.70;;;;;;;4.26;100.00;96972.09;5009991;28;101693;-62
2022/09/22 00:55:50;;;;;;;3.20;3.00;;;;;;;4.25;100.00;96971.28;5010450;28;102495;-62
2022/09/22 00:58:22;;;;;;;3.50;3.20;;;;;;;4.35;100.00;96971.72;5008429;28;104146;-62
2022/09/22 01:00:50;;;;;;;3.60;3.30;;;;;;;4.33;100.00;96962.41;5008701;28;101786;-63
2022/09/22 01:03:21;;;;;;;3.07;2.77;;;;;;;4.42;100.00;96958.59;5009053;28;105139;-63
2022/09/22 01:05:53;;;;;;;4.43;3.60;;;;;;;4.41;100.00;96959.56;5014409;28;104974;-63
2022/09/22 01:08:21;;;;;;;6.53;3.97;;;;;;;4.49;100.00;96954.16;5015494;28;101864;-62
2022/09/22 01:10:49;;;;;;;4.23;3.83;;;;;;;4.37;100.00;96951.28;5016691;28;102934;-62
2022/09/22 01:13:27;;;;;;;5.83;3.40;;;;;;;4.44;100.00;96946.03;5019185;28;101937;-62
2022/09/22 01:16:08;;;;;;;3.60;3.30;;;;;;;4.42;100.00;96940.16;5015572;28;105190;-63
2022/09/22 01:18:46;;;;;;;3.57;3.27;;;;;;;4.37;100.00;96927.56;5014846;28;105089;-62
2022/09/22 01:21:24;;;;;;;3.50;3.20;;;;;;;4.18;100.00;96932.78;5015217;28;101974;-63
2022/09/22 01:24:39;;;;;;;3.03;2.73;;;;;;;3.96;100.00;96929.47;5015409;28;104877;-62
2022/09/22 01:27:20;;;;;;;3.10;2.80;;;;;;;4.04;100.00;96926.66;5014825;28;105120;-62
2022/09/22 01:30:12;;;;;;;3.20;2.90;;;;;;;4.09;100.00;96924.25;5015340;28;101775;-62
2022/09/22 01:32:46;;;;;;;4.27;2.90;;;;;;;3.94;100.00;96925.41;5015119;28;105197;-62
2022/09/22 01:35:23;;;;;;;3.53;2.80;;;;;;;4.06;100.00;96921.19;5017843;28;105265;-62
2022/09/22 01:37:59;;;;;;;3.00;2.80;;;;;;;4.09;100.00;96918.19;5016836;28;102852;-62
2022/09/22 01:40:33;;;;;;;3.30;2.50;;;;;;;4.06;100.00;96913.31;5014686;28;105838;-62
2022/09/22 01:43:07;;;;;;;3.93;2.80;;;;;;;3.87;100.00;96914.06;5014952;28;101721;-62
2022/09/22 01:45:37;;;;;;;3.40;3.07;;;;;;;3.69;100.00;96913.75;5015229;28;104392;-62
2022/09/22 01:48:10;;;;;;;4.23;2.57;;;;;;;3.73;100.00;96918.44;5014255;28;105461;-62
2022/09/22 01:50:42;;;;;;;3.20;2.90;;;;;;;3.72;100.00;96921.25;5016541;28;101757;-62
2022/09/22 01:53:14;;;;;;;3.10;2.90;;;;;;;3.76;100.00;96911.97;5014104;28;105598;-62
2022/09/22 01:55:46;;;;;;;3.10;2.80;;;;;;;3.79;100.00;96908.94;5014370;28;106326;-62
2022/09/22 01:58:16;;;;;;;3.23;2.73;;;;;;;3.80;100.00;96915.81;5018199;28;101897;-63
2022/09/22 02:00:50;;;;;;;2.93;2.70;;;;;;;3.85;100.00;96921.31;5015882;28;103158;-63
2022/09/22 02:03:21;;;;;;;3.10;2.70;;;;;;;3.84;100.00;96906.53;5016348;28;102247;-62
2022/09/22 02:05:53;;;;;;;3.27;2.97;;;;;;;3.84;100.00;96910.00;5014881;28;105054;-62
2022/09/22 02:08:24;;;;;;;3.20;2.90;;;;;;;3.74;100.00;96913.97;5014006;28;105310;-62
2022/09/22 02:10:53;;;;;;;3.50;2.70;;;;;;;3.76;100.00;96910.16;5014905;28;101945;-62
2022/09/22 02:13:21;;;;;;;4.90;3.23;;;;;;;3.75;100.00;96919.03;5014850;28;105243;-62
2022/09/22 02:16:01;;;;;;;4.13;3.03;;;;;;;3.70;100.00;96910.94;5013419;28;103028;-63
2022/09/22 02:18:33;;;;;;;3.00;2.70;;;;;;;3.65;100.00;96909.91;5011221;28;102170;-63
2022/09/22 02:21:01;;;;;;;3.87;3.40;;;;;;;3.58;100.00;96922.19;5014044;28;105278;-62
2022/09/22 02:23:31;;;;;;;3.50;3.20;;;;;;;3.64;100.00;96916.97;5012311;28;101921;-63
2022/09/22 02:25:59;;;;;;;3.80;3.20;;;;;;;3.58;100.00;96924.81;5012693;28;102278;-62
2022/09/22 02:28:26;;;;;;;5.10;3.50;;;;;;;3.58;100.00;96919.56;5010559;28;105616;-63
2022/09/22 02:30:59;;;;;;;3.60;3.30;;;;;;;3.61;100.00;96922.59;5012415;28;101913;-62
2022/09/22 02:33:28;;;;;;;3.50;3.00;;;;;;;3.65;100.00;96907.28;5010987;28;105183;-63
2022/09/22 02:36:01;;;;;;;3.90;3.10;;;;;;;3.68;100.00;96917.38;5011782;28;104450;-63
2022/09/22 02:38:39;;;;;;;3.97;3.57;;;;;;;3.63;100.00;96920.59;5011213;28;101861;-62
2022/09/22 02:41:11;;;;;;;4.03;3.30;;;;;;;3.56;100.00;96926.84;5012376;28;102336;-63
2022/09/22 02:43:44;;;;;;;2.87;2.67;;;;;;;3.65;100.00;96926.47;5013737;28;105859;-62
2022/09/22 02:46:20;;;;;;;3.70;3.40;;;;;;;3.66;100.00;96922.84;5010874;28;105008;-63
2022/09/22 02:48:51;;;;;;;3.50;3.20;;;;;;;3.64;100.00;96913.50;5010052;28;105328;-63
2022/09/22 02:51:18;;;;;;;3.43;3.13;;;;;;;3.61;100.00;96914.72;5012472;28;101924;-62
2022/09/22 02:53:46;;;;;;;3.23;2.80;;;;;;;3.64;100.00;96918.78;5011981;28;102438;-62
2022/09/22 02:56:13;;;;;;;4.73;2.90;;;;;;;3.65;100.00;96920.41;5011621;28;102881;-63
2022/09/22 02:58:40;;;;;;;4.90;2.87;;;;;;;3.63;100.00;96917.16;5010738;28;101849;-62
2022/09/22 03:01:07;;;;;;;5.40;3.43;;;;;;;3.62;100.00;96919.00;5011963;28;102356;-63
2022/09/22 03:03:36;;;;;;;3.03;2.83;;;;;;;3.58;100.00;96927.44;5011248;28;103116;-62
2022/09/22 03:06:04;;;;;;;3.57;3.10;;;;;;;3.49;100.00;96921.53;5014142;28;101939;-63
2022/09/22 03:08:31;;;;;;;5.13;3.40;;;;;;;3.49;100.00;96931.25;5008290;28;105782;-63
2022/09/22 03:10:58;;;;;;;3.20;2.90;;;;;;;3.51;100.00;96929.22;5011742;28;101767;-63
2022/09/22 03:13:25;;;;;;;3.20;2.87;;;;;;;3.54;100.00;96923.56;5011930;28;102973;-63
2022/09/22 03:15:53;;;;;;;3.60;3.20;;;;;;;3.54;100.00;96931.44;5009771;28;105056;-63
2022/09/22 03:18:20;;;;;;;3.47;3.10;;;;;;;3.38;100.00;96923.91;5011820;28;101692;-63
2022/09/22 03:20:50;;;;;;;3.60;3.10;;;;;;;3.30;100.00;96929.28;5011394;28;104369;-62
2022/09/22 03:23:17;;;;;;;4.07;3.03;;;;;;;3.19;100.00;96928.00;5011360;28;102824;-63
2022/09/22 03:25:43;;;;;;;4.50;3.63;;;;;;;3.19;100.00;96924.56;5015195;28;101881;-62
2022/09/22 03:28:10;;;;;;;3.40;3.10;;;;;;;3.02;100.00;96934.56;5009420;28;104334;-63
2022/09/22 03:30:39;;;;;;;3.50;3.20;;;;;;;3.07;100.00;96928.72;5011527;28;101868;-63
2022/09/22 03:33:06;;;;;;;3.67;2.93;;;;;;;3.15;100.00;96939.06;5011425;28;102539;-63
2022/09/22 03:35:33;;;;;;;5.60;3.07;;;;;;;3.21;100.00;96933.06;5010700;28;102808;-62
2022/09/22 03:38:01;;;;;;;2.87;2.67;;;;;;;3.20;100.00;96934.06;5011729;28;101845;-63
2022/09/22 03:40:28;;;;;;;2.97;2.73;;;;;;;3.16;100.00;96930.22;5010135;28;104876;-62
2022/09/22 03:42:55;;;;;;;3.17;2.80;;;;;;;3.18;100.00;96928.19;5009402;28;105191;-63
2022/09/22 03:45:23;;;;;;;3.20;2.80;;;;;;;3.19;100.00;96925.38;5009882;28;101884;-63
2022/09/22 03:47:53;;;;;;;3.50;3.20;;;;;;;3.16;100.00;96920.50;5014044;28;102565;-62
2022/09/22 03:50:20;;;;;;;3.67;3.37;;;;;;;3.20;100.00;96915.66;5010074;28;101890;-63
2022/09/22 03:52:47;;;;;;;4.93;3.50;;;;;;;3.33;100.00;96915.78;5009350;28;104869;-63
2022/09/22 03:55:16;;;;;;;7.73;4.60;;;;;;;3.36;100.00;96915.38;5009319;28;105096;-62
2022/09/22 03:57:43;;;;;;;7.00;4.80;;;;;;;3.29;100.00;96919.78;5009849;28;101929;-63
2022/09/22 04:00:12;;;;;;;9.60;5.00;;;;;;;3.26;100.00;96920.16;5009750;28;104852;-63
2022/09/22 04:02:40;;;;;;;6.77;4.53;;;;;;;3.20;100.00;96921.75;5008982;28;105634;-62
2022/09/22 04:05:07;;;;;;;8.63;4.47;;;;;;;3.22;100.00;96918.94;5009674;28;101889;-62
2022/09/22 04:07:35;;;;;;;6.47;4.43;;;;;;;3.35;100.00;96926.91;5009748;28;103678;-62
2022/09/22 04:10:02;;;;;;;4.87;4.20;;;;;;;3.44;100.00;96925.75;4995965;28;105791;-62
2022/09/22 04:12:31;;;;;;;7.27;5.27;;;;;;;3.46;100.00;96923.72;5009614;28;105170;-63
2022/09/22 04:14:58;;;;;;;6.27;3.97;;;;;;;3.51;100.00;96932.69;5010253;28;102918;-63
2022/09/22 04:17:24;;;;;;;5.70;4.60;;;;;;;3.40;100.00;96930.59;5009555;28;102047;-62
2022/09/22 04:19:54;;;;;;;6.20;4.73;;;;;;;3.46;100.00;96932.44;5009616;28;102974;-63
2022/09/22 04:22:21;;;;;;;6.37;4.80;;;;;;;3.46;100.00;96932.44;5008551;28;105403;-63
2022/09/22 04:24:48;;;;;;;6.70;3.97;;;;;;;3.47;100.00;96928.81;5009187;28;101859;-63
2022/09/22 04:27:15;;;;;;;5.77;4.70;;;;;;;3.52;100.00;96933.47;5010801;28;102480;-63
2022/09/22 04:29:44;;;;;;;7.43;5.90;;;;;;;3.55;100.00;96927.84;4995757;28;104032;-62
2022/09/22 04:32:10;;;;;;;7.70;5.73;;;;;;;3.52;100.00;96930.84;5022024;28;101948;-63
2022/09/22 04:34:37;;;;;;;6.13;5.30;;;;;;;3.58;100.00;96927.44;5019391;28;105387;-63
2022/09/22 04:37:13;;;;;;;6.77;6.03;;;;;;;3.57;100.00;96933.72;5018743;28;101748;-63
2022/09/22 04:39:41;;;;;;;6.30;5.37;;;;;;;3.59;100.00;96931.69;5017501;28;105078;-63
2022/09/22 04:42:09;;;;;;;5.90;5.27;;;;;;;3.64;100.00;96939.81;5018214;28;105374;-62
2022/09/22 04:44:35;;;;;;;7.10;6.20;;;;;;;3.68;100.00;96934.00;5014695;28;102017;-63
2022/09/22 04:47:15;;;;;;;7.13;5.77;;;;;;;3.76;100.00;96943.53;5010821;28;102332;-62
2022/09/22 04:50:08;;;;;;;6.40;5.37;;;;;;;3.82;100.00;96937.50;5009076;28;103968;-62
2022/09/22 04:52:35;;;;;;;5.80;5.20;;;;;;;3.79;100.00;96948.41;5008991;28;101894;-62
2022/09/22 04:55:03;;;;;;;16.10;5.80;;;;;;;3.82;100.00;96958.53;5012198;28;105077;-62
2022/09/22 04:57:50;;;;;;;6.57;5.60;;;;;;;3.69;100.00;96940.88;5009341;28;102059;-63
2022/09/22 05:00:18;;;;;;;6.17;5.47;;;;;;;3.86;100.00;96949.22;5009409;28;103699;-63
2022/09/22 05:02:47;;;;;;;6.00;5.30;;;;;;;3.92;100.00;96951.91;5009909;28;102560;-62
2022/09/22 05:05:15;;;;;;;6.50;5.90;;;;;;;3.93;100.00;96953.53;5009180;28;102350;-62
2022/09/22 05:07:44;;;;;;;6.20;5.60;;;;;;;3.98;100.00;96952.97;5012335;28;104756;-62
2022/09/22 05:10:11;;;;;;;5.67;5.10;;;;;;;4.06;100.00;96960.69;5007807;28;105473;-61
2022/09/22 05:12:40;;;;;;;6.60;6.00;;;;;;;4.09;100.00;96957.66;5008594;28;101900;-62
2022/09/22 05:15:08;;;;;;;6.73;6.13;;;;;;;4.00;100.00;96956.19;5011398;28;103805;-61
2022/09/22 05:17:36;;;;;;;7.73;6.97;;;;;;;4.01;100.00;96957.81;5012989;28;103122;-61
2022/09/22 05:20:06;;;;;;;7.47;6.60;;;;;;;4.02;100.00;96955.00;5010227;28;102673;-61
2022/09/22 05:22:33;;;;;;;6.90;6.20;;;;;;;4.02;100.00;96959.44;5008965;28;102716;-61
2022/09/22 05:25:00;;;;;;;7.80;6.63;;;;;;;3.90;100.00;96950.47;5016518;28;101887;-62
2022/09/22 05:27:27;;;;;;;7.33;6.47;;;;;;;3.82;100.00;96948.03;5028728;28;105243;-61
2022/09/22 05:29:54;;;;;;;8.90;6.47;;;;;;;3.94;100.00;96959.59;5029426;28;102644;-62
2022/09/22 05:32:21;;;;;;;9.00;6.40;;;;;;;3.99;100.00;96954.56;5028113;28;101977;-62
2022/09/22 05:34:48;;;;;;;6.90;6.20;;;;;;;4.03;100.00;96955.78;5029693;28;102852;-62
2022/09/22 05:37:16;;;;;;;14.60;7.17;;;;;;;4.11;100.00;96960.91;5031506;28;105807;-62
2022/09/22 05:39:43;;;;;;;11.00;6.67;;;;;;;4.14;100.00;96958.69;5028530;28;105024;-62
2022/09/22 05:42:11;;;;;;;9.67;7.03;;;;;;;4.24;100.00;96964.41;5010914;28;106192;-62
2022/09/22 05:44:38;;;;;;;7.07;6.37;;;;;;;4.30;100.00;96968.88;5011180;28;101965;-62
2022/09/22 05:47:05;;;;;;;7.07;6.37;;;;;;;4.34;100.00;96966.66;5008541;28;104854;-62
2022/09/22 05:49:32;;;;;;;37.47;11.47;;;;;;;4.32;100.00;96972.09;5007888;28;105524;-62
2022/09/22 05:51:59;;;;;;;10.87;8.63;;;;;;;4.32;100.00;96971.31;5008813;28;101893;-62
2022/09/22 05:54:27;;;;;;;14.40;8.00;;;;;;;4.53;100.00;96976.44;5011365;28;104912;-62
2022/09/22 05:56:56;;;;;;;9.63;8.13;;;;;;;4.41;100.00;96970.94;5010979;28;101929;-62
2022/09/22 05:59:23;;;;;;;28.87;13.30;;;;;;;4.47;100.00;96971.97;5016551;28;101763;-62
2022/09/22 06:01:50;;;;;;;57.90;24.93;;;;;;;4.65;100.00;96970.38;5010019;28;105551;-62
2022/09/22 06:04:18;;;;;;;49.33;22.43;;;;;;;4.63;100.00;96963.72;5011641;28;101974;-62
2022/09/22 06:06:45;;;;;;;22.47;15.07;;;;;;;4.63;100.00;96964.50;5010614;28;105360;-62
2022/09/22 06:09:12;;;;;;;13.03;10.00;;;;;;;4.65;100.00;96964.31;5011581;28;102592;-62
2022/09/22 06:11:41;;;;;;;15.97;12.30;;;;;;;4.75;100.00;96973.44;5011552;28;101699;-62
2022/09/22 06:14:08;;;;;;;34.50;15.97;;;;;;;4.77;100.00;96975.88;5010645;28;104789;-62
2022/09/22 06:16:35;;;;;;;24.47;15.10;;;;;;;4.76;100.00;96969.00;5010016;28;105059;-62
2022/09/22 06:19:02;;;;;;;22.53;12.70;;;;;;;4.93;100.00;96970.25;5011930;28;101930;-62
2022/09/22 06:21:31;;;;;;;25.70;8.97;;;;;;;4.83;100.00;96977.72;5012846;28;105091;-62
2022/09/22 06:23:57;;;;;;;10.37;8.17;;;;;;;4.88;100.00;96970.03;5011369;28;101854;-62
2022/09/22 06:26:25;;;;;;;58.63;9.13;;;;;;;4.85;100.00;96973.88;5011069;28;105556;-62
2022/09/22 06:28:54;;;;;;;11.07;8.57;;;;;;;4.93;100.00;96972.88;5020843;28;105197;-62
2022/09/22 06:31:21;;;;;;;44.97;10.10;;;;;;;5.04;100.00;96964.38;5030746;28;102480;-62
2022/09/22 06:33:49;;;;;;;40.03;10.03;;;;;;;4.96;100.00;96959.31;5031314;28;102253;-62
2022/09/22 06:36:22;;;;;;;11.83;9.90;;;;;;;5.11;100.00;96965.19;5029694;28;105922;-62
2022/09/22 06:38:51;;;;;;;68.70;11.93;;;;;;;5.19;100.00;96970.28;5031373;28;101948;-62
2022/09/22 06:41:18;;;;;;;9.83;8.33;;;;;;;5.13;100.00;96976.34;5030222;28;105134;-62
2022/09/22 06:43:48;;;;;;;15.33;9.43;;;;;;;5.29;100.00;96973.31;5033651;28;105482;-62
2022/09/22 06:46:17;;;;;;;23.10;7.43;;;;;;;5.24;100.00;96970.47;5032300;28;102367;-63
2022/09/22 06:48:44;;;;;;;9.90;6.77;;;;;;;5.42;100.00;96960.13;5010155;28;105205;-63
2022/09/22 06:54:35;;;;;;;22.17;7.83;;;;;;;5.22;100.00;96961.94;5011180;28;104763;-63
2022/09/22 06:57:03;;;;;;;8.80;7.90;;;;;;;5.42;100.00;96965.38;5010346;28;105529;-64
2022/09/22 06:59:32;;;;;;;8.50;7.70;;;;;;;5.75;100.00;96964.34;5011882;28;101848;-64
2022/09/22 07:02:03;;;;;;;9.27;8.03;;;;;;;6.07;100.00;96960.03;5010405;28;105140;-64
2022/09/22 07:04:29;;;;;;;10.33;8.13;;;;;;;6.33;100.00;96965.22;5011863;28;101641;-64
2022/09/22 07:06:59;;;;;;;8.80;7.97;;;;;;;6.44;100.00;96960.06;5014583;28;102469;-63
2022/09/22 07:09:27;;;;;;;8.90;7.43;;;;;;;6.39;100.00;96962.50;5010367;28;105825;-63
2022/09/22 07:11:56;;;;;;;7.50;6.90;;;;;;;6.46;100.00;96963.31;5010791;28;101937;-63
2022/09/22 07:14:24;;;;;;;8.10;7.33;;;;;;;6.58;100.00;96963.44;5010738;28;105085;-63
2022/09/22 07:16:54;;;;;;;8.13;7.33;;;;;;;6.78;100.00;96959.69;5010297;28;105297;-62
2022/09/22 07:19:24;;;;;;;9.43;8.43;;;;;;;6.99;100.00;96956.69;5010898;28;101744;-63
2022/09/22 07:21:52;;;;;;;10.00;7.93;;;;;;;6.86;100.00;96961.25;5010492;28;105235;-61
2022/09/22 07:24:19;;;;;;;13.47;8.67;;;;;;;6.89;100.00;96961.66;5010985;28;102681;-60
2022/09/22 07:26:50;;;;;;;8.77;7.37;;;;;;;6.83;100.00;96956.41;5012100;28;101762;-60
2022/09/22 07:29:16;;;;;;;8.30;7.23;;;;;;;6.61;100.00;96968.31;5013650;28;105508;-60
2022/09/22 07:31:44;;;;;;;10.37;8.83;;;;;;;6.95;100.00;96959.97;5010451;28;101898;-60
2022/09/22 07:34:11;;;;;;;9.53;8.00;;;;;;;7.09;100.00;96961.53;5010726;28;104826;-60
2022/09/22 07:36:44;;;;;;;10.80;9.40;;;;;;;7.27;100.00;96953.63;5011156;28;103163;-60
2022/09/22 07:39:11;;;;;;;9.27;8.33;;;;;;;6.81;100.00;96947.88;5010317;28;101990;-60
2022/09/22 07:41:41;;;;;;;11.07;8.93;;;;;;;7.21;100.00;96955.28;5026151;28;102216;-61
2022/09/22 07:47:07;;;;;;;11.80;10.60;;;;;;;7.26;100.00;96954.66;5029421;28;102097;-61
2022/09/22 07:49:37;;;;;;;10.73;9.63;;;;;;;7.34;100.00;96949.09;5033823;27;102800;-61
2022/09/22 07:52:05;;;;;;;11.27;10.20;;;;;;;7.59;100.00;96957.84;5031482;27;102084;-61
2022/09/22 07:54:35;;;;;;;10.23;9.20;;;;;;;8.02;100.00;96956.78;5022334;28;105713;-61
2022/09/22 07:57:43;;;;;;;7.97;7.27;;;;;;;8.51;100.00;96959.28;5009439;28;105696;-61
2022/09/22 08:00:12;;;;;;;8.50;7.30;;;;;;;8.52;100.00;96954.81;5016215;28;101950;-62
2022/09/22 08:02:43;;;;;;;8.00;7.20;;;;;;;8.57;100.00;96952.28;5010045;28;105646;-62
2022/09/22 08:05:10;;;;;;;6.70;6.10;;;;;;;8.66;100.00;96953.56;5022326;28;103186;-62
2022/09/22 08:08:02;;;;;;;7.83;7.13;;;;;;;8.66;100.00;96956.22;5031434;28;101775;-61
2022/09/22 08:10:34;;;;;;;7.63;6.83;;;;;;;8.69;100.00;96958.44;5029898;28;103977;-61
2022/09/22 08:13:03;;;;;;;6.90;6.30;;;;;;;8.68;100.00;96951.53;5032822;28;105172;-61
2022/09/22 08:15:30;;;;;;;7.27;6.57;;;;;;;8.79;100.00;96953.41;5029020;28;105815;-62
2022/09/22 08:17:58;;;;;;;6.70;6.10;;;;;;;8.93;100.00;96953.00;5029531;28;104160;-62
2022/09/22 08:21:00;;;;;;;6.30;5.80;;;;;;;9.03;100.00;96947.97;5013809;28;102136;-62
2022/09/22 08:23:30;;;;;;;5.87;5.27;;;;;;;8.80;100.00;96955.84;5009626;28;105133;-60
2022/09/22 08:26:03;;;;;;;5.37;4.97;;;;;;;8.86;100.00;96947.00;5009252;28;106076;-61
2022/09/22 08:28:30;;;;;;;6.37;4.90;;;;;;;9.06;100.00;96952.78;5021143;28;102132;-61
2022/09/22 08:30:57;;;;;;;5.20;4.80;;;;;;;9.43;100.00;96948.16;5029683;28;105132;-61
2022/09/22 08:33:24;;;;;;;5.50;5.00;;;;;;;9.60;100.00;96944.56;5028596;28;105398;-61
2022/09/22 08:36:02;;;;;;;4.80;4.40;;;;;;;9.32;100.00;96943.66;5032840;28;102018;-61
2022/09/22 08:38:33;;;;;;;5.40;4.90;;;;;;;9.54;100.00;96945.50;5029229;28;105664;-61
2022/09/22 08:41:16;;;;;;;4.73;4.33;;;;;;;9.78;100.00;96938.34;5018722;28;101784;-62
2022/09/22 08:43:54;;;;;;;6.60;4.70;;;;;;;9.88;100.00;96931.41;5020355;28;105650;-62
2022/09/22 08:46:54;;;;;;;5.17;4.40;;;;;;;9.85;100.00;96933.72;5030429;27;102473;-62
2022/09/22 08:52:19;;;;;;;4.93;4.53;;;;;;;10.51;100.00;96920.78;5029124;28;104725;-62
2022/09/22 08:54:49;;;;;;;4.53;4.10;;;;;;;10.94;100.00;96918.38;5027256;28;104212;-62
2022/09/22 08:57:40;;;;;;;4.53;4.20;;;;;;;11.29;100.00;96919.00;5014287;28;101949;-62
2022/09/22 09:00:13;;;;;;;4.10;3.80;;;;;;;11.23;100.00;96919.97;5032104;28;105082;-62
2022/09/22 09:02:43;;;;;;;4.43;4.10;;;;;;;11.13;100.00;96915.28;5029365;28;101938;-62
2022/09/22 09:05:45;;;;;;;4.20;3.80;;;;;;;10.31;100.00;96921.19;5011072;28;102583;-62
2022/09/22 09:08:40;;;;;;;4.20;3.67;;;;;;;10.01;100.00;96920.53;5008455;28;105196;-62
2022/09/22 09:11:22;;;;;;;4.40;4.10;;;;;;;11.00;100.00;96920.09;5009030;28;102022;-63
2022/09/22 09:14:04;;;;;;;4.30;3.90;;;;;;;10.97;100.00;96920.59;5009296;28;103994;-63
2022/09/22 09:16:49;;;;;;;4.77;3.80;;;;;;;11.33;100.00;96923.59;5008640;28;105116;-63
2022/09/22 09:19:20;;;;;;;3.90;3.60;;;;;;;11.37;100.00;96918.59;5010441;28;101885;-63
2022/09/22 09:21:52;;;;;;;3.47;3.27;;;;;;;11.10;100.00;96909.63;5013551;28;102527;-63
2022/09/22 09:24:27;;;;;;;3.27;2.97;;;;;;;11.16;100.00;96913.97;5027058;28;105545;-62
2022/09/22 09:27:15;;;;;;;3.13;2.83;;;;;;;11.64;100.00;96909.75;5033644;27;102373;-63
2022/09/22 09:29:50;;;;;;;3.60;3.30;;;;;;;11.95;100.00;96908.31;5014804;28;105781;-62
2022/09/22 09:32:25;;;;;;;3.33;3.03;;;;;;;11.31;100.00;96917.72;5013883;28;101752;-62
2022/09/22 09:34:52;;;;;;;3.10;2.90;;;;;;;12.03;100.00;96907.88;5012451;28;105092;-61
2022/09/22 09:37:25;;;;;;;3.03;2.80;;;;;;;12.13;100.00;96913.34;5013081;28;102521;-62
2022/09/22 09:39:52;;;;;;;3.03;2.70;;;;;;;12.83;100.00;96907.00;5016267;28;103321;-61
2022/09/22 09:42:26;;;;;;;3.10;2.80;;;;;;;12.90;100.00;96901.44;5032410;28;105503;-62
2022/09/22 09:44:54;;;;;;;4.23;3.27;;;;;;;13.07;100.00;96902.16;5032937;28;103137;-62
2022/09/22 09:47:47;;;;;;;3.33;2.83;;;;;;;13.10;100.00;96899.00;5037053;28;101816;-60
2022/09/22 09:50:16;;;;;;;2.97;2.70;;;;;;;13.10;100.00;96897.13;5033013;28;102638;-64
2022/09/22 09:52:43;;;;;;;2.70;2.50;;;;;;;13.73;100.00;96893.63;5033060;27;102188;-65
2022/09/22 09:55:24;;;;;;;3.03;2.73;;;;;;;13.42;100.00;96883.78;5033354;28;104278;-65
2022/09/22 09:58:11;;;;;;;3.00;2.80;;;;;;;13.04;100.00;96884.00;5017731;27;103015;-65
2022/09/22 10:00:53;;;;;;;2.43;2.33;;;;;;;13.68;100.00;96875.66;5013339;28;101785;-65
2022/09/22 10:03:26;;;;;;;2.90;2.70;;;;;;;13.38;100.00;96870.13;5013175;28;102360;-64
2022/09/22 10:06:05;;;;;;;2.77;2.57;;;;;;;13.57;100.00;96865.97;5011403;28;105611;-65
2022/09/22 10:08:35;;;;;;;2.70;2.50;;;;;;;13.60;100.00;96873.50;5015314;28;101894;-65
2022/09/22 10:11:03;;;;;;;2.80;2.60;;;;;;;14.13;100.00;96869.78;5012291;28;105371;-65
2022/09/22 10:13:35;;;;;;;2.93;2.67;;;;;;;14.54;100.00;96863.53;5033170;28;101807;-65
2022/09/22 10:16:25;;;;;;;3.50;2.50;;;;;;;15.24;100.00;96863.66;5031232;28;104062;-65
2022/09/22 10:19:05;;;;;;;0.90;0.90;;;;;;;15.50;100.00;96865.28;5011193;28;105436;-65
2022/09/22 10:21:36;;;;;;;0.73;0.73;;;;;;;15.87;100.00;96860.41;5016477;28;101915;-64
2022/09/22 10:24:24;;;;;;;0.80;0.80;;;;;;;15.88;100.00;96853.97;5031856;28;105115;-64
2022/09/22 10:27:34;;;;;;;1.17;0.80;;;;;;;15.75;100.00;96851.84;5031002;28;102572;-64
2022/09/22 10:30:36;;;;;;;1.13;1.00;;;;;;;16.21;100.00;96851.44;5033267;27;101890;-65
2022/09/22 10:33:19;;;;;;;1.33;0.87;;;;;;;16.55;100.00;96851.56;5000783;27;102973;-64
2022/09/22 10:35:55;;;;;;;0.70;0.70;;;;;;;16.85;100.00;96844.16;5031565;28;101896;-64
2022/09/22 10:38:25;;;;;;;2.03;0.80;;;;;;;16.73;100.00;96842.91;5010597;28;103515;-65
2022/09/22 10:40:56;;;;;;;1.83;0.60;;;;;;;16.60;99.85;96838.94;5010760;28;105381;-65
2022/09/22 10:43:44;;;;;;;1.17;0.70;;;;;;;17.12;98.25;96843.72;5012711;28;102159;-65
2022/09/22 10:46:37;;;;;;;0.60;0.60;;;;;;;17.31;86.60;96837.38;5012320;28;102302;-65
2022/09/22 10:49:12;;;;;;;0.43;0.43;;;;;;;17.45;97.33;96834.88;5010716;28;107029;-65
2022/09/22 10:52:07;;;;;;;0.70;0.60;;;;;;;17.23;91.98;96843.34;5012667;28;101825;-65
2022/09/22 10:54:50;;;;;;;1.30;0.60;;;;;;;17.52;90.71;96840.72;5011206;28;105744;-65
2022/09/22 10:57:37;;;;;;;0.60;0.60;;;;;;;17.81;84.73;96844.19;5026439;28;102633;-65
2022/09/22 11:00:14;;;;;;;1.50;0.60;;;;;;;17.82;83.36;96837.75;5032726;28;102190;-65
2022/09/22 11:03:18;;;;;;;0.57;0.57;;;;;;;17.78;71.96;96840.19;5016826;28;102503;-65
2022/09/22 11:12:16;;;;;;;1.30;0.60;;;;;;;18.23;74.82;96830.81;5014040;28;102750;-65
2022/09/22 11:14:57;;;;;;;2.03;0.93;;;;;;;18.51;72.60;96827.25;5010812;28;101911;-64
2022/09/22 11:18:13;;;;;;;2.03;0.80;;;;;;;18.71;72.85;96822.41;5011703;28;106403;-63
2022/09/22 11:21:11;;;;;;;1.17;0.60;;;;;;;18.79;64.88;96816.34;5011411;28;103213;-65
2022/09/22 11:24:03;;;;;;;1.57;0.80;;;;;;;18.74;67.65;96812.94;5014073;28;101884;-65
2022/09/22 11:26:45;;;;;;;1.73;0.90;;;;;;;18.90;73.71;96808.91;5009915;28;105921;-65
2022/09/22 11:29:40;;;;;;;0.73;0.67;;;;;;;18.70;66.94;96811.91;5012115;28;101611;-65
2022/09/22 11:32:23;;;;;;;1.17;0.50;;;;;;;18.94;57.27;96807.22;5023327;28;105106;-65
2022/09/22 11:35:02;;;;;;;0.73;0.70;;;;;;;18.88;59.60;96794.94;5030047;28;105431;-65
2022/09/22 11:38:20;;;;;;;0.73;0.70;;;;;;;19.16;63.34;96807.41;5028441;28;102330;-65
2022/09/22 11:41:02;;;;;;;0.70;0.70;;;;;;;19.26;63.21;96801.91;5030319;28;102760;-64
2022/09/22 11:43:55;;;;;;;0.97;0.70;;;;;;;19.11;67.10;96800.22;5011344;28;103033;-66
2022/09/22 11:46:53;;;;;;;0.60;0.60;;;;;;;18.73;59.95;96787.06;5014492;28;102179;-63
2022/09/22 11:49:37;;;;;;;0.60;0.60;;;;;;;19.07;60.38;96793.03;5017887;28;101676;-64
2022/09/22 11:52:17;;;;;;;0.97;0.67;;;;;;;19.26;55.04;96791.13;5011726;28;101679;-64
2022/09/22 11:55:11;;;;;;;1.27;0.60;;;;;;;18.90;48.13;96790.03;5011556;28;102351;-63
2022/09/22 11:58:34;;;;;;;0.73;0.60;;;;;;;18.72;53.30;96791.66;5009349;28;105665;-63
2022/09/22 12:01:07;;;;;;;0.80;0.63;;;;;;;19.14;61.24;96790.75;5019660;28;101872;-63
2022/09/22 12:03:40;;;;;;;0.67;0.60;;;;;;;19.42;53.68;96790.56;5031590;28;102357;-63
2022/09/22 12:06:14;;;;;;;0.63;0.63;;;;;;;19.53;53.03;96783.91;5030320;27;102521;-63